sensor_id;sensor_type;location;lat;lon;timestamp;P1;durP1;ratioP1;P2;durP2;ratioP2
14789;SDS011;7486;51.010;10.366;2022-12-15T00:09:14;25.27;;;13.80;;
14789;SDS011;7486;51.010;10.366;2022-12-15T00:11:45;23.13;;;14.13;;
14789;SDS011;7486;51.010;10.366;2022-12-15T00:14:12;23.83;;;14.13;;
14789;SDS011;7486;51.010;10.366;2022-12-15T00:16:39;22.83;;;13.83;;
14789;SDS011;7486;51.010;10.366;2022-12-15T00:19:05;21.30;;;13.37;;
14789;SDS011;7486;51.010;10.366;2022-12-15T00:21:32;24.13;;;14.07;;
14789;SDS011;7486;51.010;10.366;2022-12-15T00:23:59;21.93;;;14.00;;
14789;SDS011;7486;51.010;10.366;2022-12-15T00:26:26;23.63;;;14.63;;
14789;SDS011;7486;51.010;10.366;2022-12-15T00:28:54;22.60;;;13.80;;
14789;SDS011;7486;51.010;10.366;2022-12-15T00:31:21;25.63;;;14.20;;
14789;SDS011;7486;51.010;10.366;2022-12-15T00:33:48;21.57;;;14.10;;
14789;SDS011;7486;51.010;10.366;2022-12-15T00:36:15;22.57;;;14.70;;
14789;SDS011;7486;51.010;10.366;2022-12-15T00:38:41;25.33;;;15.73;;
14789;SDS011;7486;51.010;10.366;2022-12-15T00:41:12;26.90;;;15.40;;
14789;SDS011;7486;51.010;10.366;2022-12-15T00:43:41;24.53;;;15.30;;
14789;SDS011;7486;51.010;10.366;2022-12-15T00:46:09;23.30;;;14.80;;
14789;SDS011;7486;51.010;10.366;2022-12-15T00:48:36;23.90;;;15.50;;
14789;SDS011;7486;51.010;10.366;2022-12-15T00:51:03;24.33;;;14.67;;
14789;SDS011;7486;51.010;10.366;2022-12-15T00:53:30;23.97;;;14.70;;
14789;SDS011;7486;51.010;10.366;2022-12-15T00:55:58;26.10;;;15.80;;
14789;SDS011;7486;51.010;10.366;2022-12-15T00:58:24;23.00;;;14.40;;
14789;SDS011;7486;51.010;10.366;2022-12-15T01:00:51;22.03;;;13.97;;
14789;SDS011;7486;51.010;10.366;2022-12-15T01:03:19;22.30;;;15.10;;
14789;SDS011;7486;51.010;10.366;2022-12-15T01:05:47;22.17;;;14.43;;
14789;SDS011;7486;51.010;10.366;2022-12-15T01:08:14;25.53;;;15.13;;
14789;SDS011;7486;51.010;10.366;2022-12-15T01:10:41;26.03;;;15.03;;
14789;SDS011;7486;51.010;10.366;2022-12-15T01:13:10;24.90;;;15.73;;
14789;SDS011;7486;51.010;10.366;2022-12-15T01:15:38;22.33;;;14.70;;
14789;SDS011;7486;51.010;10.366;2022-12-15T01:18:05;25.77;;;15.17;;
14789;SDS011;7486;51.010;10.366;2022-12-15T01:20:32;24.63;;;15.03;;
14789;SDS011;7486;51.010;10.366;2022-12-15T01:22:59;23.67;;;14.97;;
14789;SDS011;7486;51.010;10.366;2022-12-15T01:25:26;25.13;;;14.93;;
14789;SDS011;7486;51.010;10.366;2022-12-15T01:27:52;26.60;;;15.47;;
14789;SDS011;7486;51.010;10.366;2022-12-15T01:30:23;25.67;;;15.13;;
14789;SDS011;7486;51.010;10.366;2022-12-15T01:32:51;28.53;;;16.00;;
14789;SDS011;7486;51.010;10.366;2022-12-15T01:35:19;27.73;;;15.27;;
14789;SDS011;7486;51.010;10.366;2022-12-15T01:37:45;24.33;;;15.17;;
14789;SDS011;7486;51.010;10.366;2022-12-15T01:40:16;26.17;;;15.70;;
14789;SDS011;7486;51.010;10.366;2022-12-15T01:42:44;30.47;;;17.70;;
14789;SDS011;7486;51.010;10.366;2022-12-15T01:48:00;28.60;;;16.60;;
14789;SDS011;7486;51.010;10.366;2022-12-15T01:50:50;26.87;;;16.63;;
14789;SDS011;7486;51.010;10.366;2022-12-15T01:53:23;28.07;;;15.83;;
14789;SDS011;7486;51.010;10.366;2022-12-15T01:55:52;28.20;;;16.30;;
14789;SDS011;7486;51.010;10.366;2022-12-15T01:58:19;28.47;;;16.20;;
14789;SDS011;7486;51.010;10.366;2022-12-15T02:00:48;25.87;;;15.77;;
14789;SDS011;7486;51.010;10.366;2022-12-15T02:03:14;25.90;;;15.33;;
14789;SDS011;7486;51.010;10.366;2022-12-15T02:05:41;23.40;;;14.83;;
14789;SDS011;7486;51.010;10.366;2022-12-15T02:08:08;26.87;;;15.83;;
14789;SDS011;7486;51.010;10.366;2022-12-15T02:13:17;25.07;;;15.93;;
14789;SDS011;7486;51.010;10.366;2022-12-15T02:16:02;24.90;;;15.23;;
14789;SDS011;7486;51.010;10.366;2022-12-15T02:19:01;24.73;;;14.97;;
14789;SDS011;7486;51.010;10.366;2022-12-15T02:30:15;23.60;;;15.33;;
14789;SDS011;7486;51.010;10.366;2022-12-15T02:35:55;24.63;;;15.00;;
14789;SDS011;7486;51.010;10.366;2022-12-15T02:38:33;24.40;;;15.07;;
14789;SDS011;7486;51.010;10.366;2022-12-15T02:41:04;24.80;;;14.13;;
14789;SDS011;7486;51.010;10.366;2022-12-15T02:43:52;28.80;;;16.03;;
14789;SDS011;7486;51.010;10.366;2022-12-15T02:49:18;24.07;;;14.40;;
14789;SDS011;7486;51.010;10.366;2022-12-15T02:58:11;26.27;;;15.17;;
14789;SDS011;7486;51.010;10.366;2022-12-15T03:01:13;24.53;;;14.93;;
14789;SDS011;7486;51.010;10.366;2022-12-15T03:03:45;24.00;;;15.07;;
14789;SDS011;7486;51.010;10.366;2022-12-15T03:06:14;25.03;;;14.30;;
14789;SDS011;7486;51.010;10.366;2022-12-15T03:08:42;23.20;;;14.77;;
14789;SDS011;7486;51.010;10.366;2022-12-15T03:11:09;26.27;;;15.73;;
14789;SDS011;7486;51.010;10.366;2022-12-15T03:13:35;22.67;;;14.83;;
14789;SDS011;7486;51.010;10.366;2022-12-15T03:16:02;24.77;;;14.57;;
14789;SDS011;7486;51.010;10.366;2022-12-15T03:18:29;25.23;;;15.40;;
14789;SDS011;7486;51.010;10.366;2022-12-15T03:20:55;24.23;;;14.77;;
14789;SDS011;7486;51.010;10.366;2022-12-15T03:23:22;27.87;;;14.77;;
14789;SDS011;7486;51.010;10.366;2022-12-15T03:25:50;26.03;;;15.40;;
14789;SDS011;7486;51.010;10.366;2022-12-15T03:28:16;25.10;;;14.17;;
14789;SDS011;7486;51.010;10.366;2022-12-15T03:30:43;23.57;;;14.40;;
14789;SDS011;7486;51.010;10.366;2022-12-15T03:33:16;23.60;;;13.90;;
14789;SDS011;7486;51.010;10.366;2022-12-15T03:35:42;22.43;;;14.03;;
14789;SDS011;7486;51.010;10.366;2022-12-15T03:38:09;21.63;;;13.87;;
14789;SDS011;7486;51.010;10.366;2022-12-15T03:40:36;24.77;;;14.57;;
14789;SDS011;7486;51.010;10.366;2022-12-15T03:43:03;26.20;;;14.50;;
14789;SDS011;7486;51.010;10.366;2022-12-15T03:45:29;26.30;;;15.10;;
14789;SDS011;7486;51.010;10.366;2022-12-15T03:47:56;24.33;;;14.30;;
14789;SDS011;7486;51.010;10.366;2022-12-15T03:50:24;24.13;;;14.43;;
14789;SDS011;7486;51.010;10.366;2022-12-15T03:52:56;23.33;;;14.30;;
14789;SDS011;7486;51.010;10.366;2022-12-15T03:55:24;20.63;;;13.70;;
14789;SDS011;7486;51.010;10.366;2022-12-15T03:57:51;22.03;;;13.13;;
14789;SDS011;7486;51.010;10.366;2022-12-15T04:00:19;22.63;;;14.33;;
14789;SDS011;7486;51.010;10.366;2022-12-15T04:02:48;21.93;;;14.13;;
14789;SDS011;7486;51.010;10.366;2022-12-15T04:07:45;22.60;;;14.40;;
14789;SDS011;7486;51.010;10.366;2022-12-15T04:10:12;23.13;;;15.03;;
14789;SDS011;7486;51.010;10.366;2022-12-15T04:12:40;24.47;;;14.53;;
14789;SDS011;7486;51.010;10.366;2022-12-15T04:15:07;24.30;;;14.60;;
14789;SDS011;7486;51.010;10.366;2022-12-15T04:17:35;25.90;;;14.60;;
14789;SDS011;7486;51.010;10.366;2022-12-15T04:20:02;25.03;;;15.20;;
14789;SDS011;7486;51.010;10.366;2022-12-15T04:22:30;22.83;;;14.57;;
14789;SDS011;7486;51.010;10.366;2022-12-15T04:24:57;23.90;;;14.20;;
14789;SDS011;7486;51.010;10.366;2022-12-15T04:27:23;23.40;;;14.40;;
14789;SDS011;7486;51.010;10.366;2022-12-15T04:29:50;22.63;;;13.87;;
14789;SDS011;7486;51.010;10.366;2022-12-15T04:32:17;24.20;;;13.90;;
14789;SDS011;7486;51.010;10.366;2022-12-15T04:34:44;21.73;;;14.43;;
14789;SDS011;7486;51.010;10.366;2022-12-15T04:37:11;24.07;;;14.37;;
14789;SDS011;7486;51.010;10.366;2022-12-15T04:39:40;24.33;;;14.37;;
14789;SDS011;7486;51.010;10.366;2022-12-15T04:42:09;22.10;;;13.50;;
14789;SDS011;7486;51.010;10.366;2022-12-15T04:44:36;23.67;;;14.40;;
14789;SDS011;7486;51.010;10.366;2022-12-15T04:47:03;23.03;;;13.13;;
14789;SDS011;7486;51.010;10.366;2022-12-15T04:49:29;20.77;;;12.90;;
14789;SDS011;7486;51.010;10.366;2022-12-15T04:51:56;22.80;;;14.30;;
14789;SDS011;7486;51.010;10.366;2022-12-15T04:54:23;22.60;;;14.07;;
14789;SDS011;7486;51.010;10.366;2022-12-15T04:56:49;21.00;;;14.00;;
14789;SDS011;7486;51.010;10.366;2022-12-15T04:59:16;23.47;;;13.67;;
14789;SDS011;7486;51.010;10.366;2022-12-15T05:01:43;21.87;;;13.50;;
14789;SDS011;7486;51.010;10.366;2022-12-15T05:04:10;21.13;;;13.43;;
14789;SDS011;7486;51.010;10.366;2022-12-15T05:06:37;22.97;;;14.50;;
14789;SDS011;7486;51.010;10.366;2022-12-15T05:09:04;21.47;;;13.17;;
14789;SDS011;7486;51.010;10.366;2022-12-15T05:11:30;21.77;;;12.63;;
14789;SDS011;7486;51.010;10.366;2022-12-15T05:13:57;22.47;;;13.63;;
14789;SDS011;7486;51.010;10.366;2022-12-15T05:16:23;20.33;;;13.17;;
14789;SDS011;7486;51.010;10.366;2022-12-15T05:18:50;21.57;;;13.67;;
14789;SDS011;7486;51.010;10.366;2022-12-15T05:21:17;23.77;;;13.80;;
14789;SDS011;7486;51.010;10.366;2022-12-15T05:23:44;24.40;;;14.67;;
14789;SDS011;7486;51.010;10.366;2022-12-15T05:26:10;24.50;;;13.80;;
14789;SDS011;7486;51.010;10.366;2022-12-15T05:28:37;25.37;;;13.83;;
14789;SDS011;7486;51.010;10.366;2022-12-15T05:31:05;21.40;;;13.37;;
14789;SDS011;7486;51.010;10.366;2022-12-15T05:33:32;21.70;;;13.63;;
14789;SDS011;7486;51.010;10.366;2022-12-15T05:35:59;22.17;;;12.67;;
14789;SDS011;7486;51.010;10.366;2022-12-15T05:38:26;22.37;;;13.83;;
14789;SDS011;7486;51.010;10.366;2022-12-15T05:40:55;23.43;;;15.10;;
14789;SDS011;7486;51.010;10.366;2022-12-15T05:43:22;26.90;;;16.60;;
14789;SDS011;7486;51.010;10.366;2022-12-15T05:45:52;26.27;;;13.90;;
14789;SDS011;7486;51.010;10.366;2022-12-15T05:48:18;23.80;;;13.37;;
14789;SDS011;7486;51.010;10.366;2022-12-15T05:50:45;22.07;;;13.87;;
14789;SDS011;7486;51.010;10.366;2022-12-15T05:53:15;24.57;;;14.37;;
14789;SDS011;7486;51.010;10.366;2022-12-15T05:55:41;21.20;;;13.53;;
14789;SDS011;7486;51.010;10.366;2022-12-15T05:58:08;23.27;;;13.73;;
14789;SDS011;7486;51.010;10.366;2022-12-15T06:00:35;23.27;;;14.23;;
14789;SDS011;7486;51.010;10.366;2022-12-15T06:03:02;22.70;;;14.60;;
14789;SDS011;7486;51.010;10.366;2022-12-15T06:05:28;26.37;;;14.40;;
14789;SDS011;7486;51.010;10.366;2022-12-15T06:07:55;26.97;;;15.17;;
14789;SDS011;7486;51.010;10.366;2022-12-15T06:10:22;22.33;;;13.67;;
14789;SDS011;7486;51.010;10.366;2022-12-15T06:12:48;21.80;;;13.63;;
14789;SDS011;7486;51.010;10.366;2022-12-15T06:15:15;22.57;;;13.57;;
14789;SDS011;7486;51.010;10.366;2022-12-15T06:17:42;24.23;;;14.07;;
14789;SDS011;7486;51.010;10.366;2022-12-15T06:20:15;23.93;;;13.73;;
14789;SDS011;7486;51.010;10.366;2022-12-15T06:22:41;23.73;;;14.50;;
14789;SDS011;7486;51.010;10.366;2022-12-15T06:25:15;21.13;;;14.67;;
14789;SDS011;7486;51.010;10.366;2022-12-15T06:27:43;24.00;;;15.00;;
14789;SDS011;7486;51.010;10.366;2022-12-15T06:30:10;24.00;;;14.43;;
14789;SDS011;7486;51.010;10.366;2022-12-15T06:32:36;23.70;;;14.00;;
14789;SDS011;7486;51.010;10.366;2022-12-15T06:35:03;23.10;;;14.00;;
14789;SDS011;7486;51.010;10.366;2022-12-15T06:37:30;23.50;;;14.23;;
14789;SDS011;7486;51.010;10.366;2022-12-15T06:39:57;24.13;;;14.40;;
14789;SDS011;7486;51.010;10.366;2022-12-15T06:42:24;24.67;;;13.67;;
14789;SDS011;7486;51.010;10.366;2022-12-15T06:44:50;23.80;;;13.90;;
14789;SDS011;7486;51.010;10.366;2022-12-15T06:47:17;24.03;;;13.40;;
14789;SDS011;7486;51.010;10.366;2022-12-15T06:49:44;21.03;;;13.23;;
14789;SDS011;7486;51.010;10.366;2022-12-15T06:52:10;21.43;;;12.53;;
14789;SDS011;7486;51.010;10.366;2022-12-15T06:54:37;22.07;;;13.77;;
14789;SDS011;7486;51.010;10.366;2022-12-15T06:57:04;22.27;;;13.43;;
14789;SDS011;7486;51.010;10.366;2022-12-15T06:59:30;24.53;;;13.83;;
14789;SDS011;7486;51.010;10.366;2022-12-15T07:01:57;22.67;;;12.83;;
14789;SDS011;7486;51.010;10.366;2022-12-15T07:04:24;22.40;;;13.97;;
14789;SDS011;7486;51.010;10.366;2022-12-15T07:06:51;19.40;;;13.30;;
14789;SDS011;7486;51.010;10.366;2022-12-15T07:09:18;24.53;;;13.63;;
14789;SDS011;7486;51.010;10.366;2022-12-15T07:11:44;20.33;;;13.10;;
14789;SDS011;7486;51.010;10.366;2022-12-15T07:14:11;23.93;;;13.60;;
14789;SDS011;7486;51.010;10.366;2022-12-15T07:16:38;23.57;;;13.90;;
14789;SDS011;7486;51.010;10.366;2022-12-15T07:19:04;22.43;;;13.97;;
14789;SDS011;7486;51.010;10.366;2022-12-15T07:21:31;31.50;;;17.33;;
14789;SDS011;7486;51.010;10.366;2022-12-15T07:23:58;26.67;;;15.13;;
14789;SDS011;7486;51.010;10.366;2022-12-15T07:26:26;27.93;;;15.33;;
14789;SDS011;7486;51.010;10.366;2022-12-15T07:28:53;26.13;;;14.90;;
14789;SDS011;7486;51.010;10.366;2022-12-15T07:31:20;24.03;;;14.13;;
14789;SDS011;7486;51.010;10.366;2022-12-15T07:33:47;22.03;;;13.70;;
14789;SDS011;7486;51.010;10.366;2022-12-15T07:36:14;24.97;;;15.03;;
14789;SDS011;7486;51.010;10.366;2022-12-15T07:38:41;24.87;;;14.60;;
14789;SDS011;7486;51.010;10.366;2022-12-15T07:41:08;23.30;;;13.60;;
14789;SDS011;7486;51.010;10.366;2022-12-15T07:43:35;23.10;;;14.43;;
14789;SDS011;7486;51.010;10.366;2022-12-15T07:46:03;22.40;;;14.47;;
14789;SDS011;7486;51.010;10.366;2022-12-15T07:48:31;23.87;;;13.57;;
14789;SDS011;7486;51.010;10.366;2022-12-15T07:51:03;24.23;;;14.50;;
14789;SDS011;7486;51.010;10.366;2022-12-15T07:53:41;22.53;;;13.13;;
14789;SDS011;7486;51.010;10.366;2022-12-15T07:56:08;24.50;;;15.30;;
14789;SDS011;7486;51.010;10.366;2022-12-15T07:58:36;24.10;;;13.70;;
14789;SDS011;7486;51.010;10.366;2022-12-15T08:01:05;24.50;;;14.13;;
14789;SDS011;7486;51.010;10.366;2022-12-15T08:03:34;22.53;;;13.70;;
14789;SDS011;7486;51.010;10.366;2022-12-15T08:06:03;23.67;;;14.53;;
14789;SDS011;7486;51.010;10.366;2022-12-15T08:08:34;24.97;;;14.50;;
14789;SDS011;7486;51.010;10.366;2022-12-15T08:11:04;27.73;;;17.57;;
14789;SDS011;7486;51.010;10.366;2022-12-15T08:13:32;28.00;;;17.10;;
14789;SDS011;7486;51.010;10.366;2022-12-15T08:16:20;25.37;;;15.43;;
14789;SDS011;7486;51.010;10.366;2022-12-15T08:18:47;24.60;;;14.23;;
14789;SDS011;7486;51.010;10.366;2022-12-15T08:21:13;30.27;;;20.07;;
14789;SDS011;7486;51.010;10.366;2022-12-15T08:23:40;26.87;;;17.33;;
14789;SDS011;7486;51.010;10.366;2022-12-15T08:26:08;25.67;;;16.37;;
14789;SDS011;7486;51.010;10.366;2022-12-15T08:28:37;24.37;;;13.87;;
14789;SDS011;7486;51.010;10.366;2022-12-15T08:31:08;22.13;;;13.97;;
14789;SDS011;7486;51.010;10.366;2022-12-15T08:33:37;26.67;;;15.93;;
14789;SDS011;7486;51.010;10.366;2022-12-15T08:36:06;26.90;;;16.53;;
14789;SDS011;7486;51.010;10.366;2022-12-15T08:38:36;26.33;;;15.23;;
14789;SDS011;7486;51.010;10.366;2022-12-15T08:41:07;27.17;;;17.00;;
14789;SDS011;7486;51.010;10.366;2022-12-15T08:43:39;25.33;;;15.83;;
14789;SDS011;7486;51.010;10.366;2022-12-15T08:46:14;24.97;;;16.27;;
14789;SDS011;7486;51.010;10.366;2022-12-15T08:48:45;28.13;;;15.20;;
14789;SDS011;7486;51.010;10.366;2022-12-15T08:51:13;25.63;;;14.57;;
14789;SDS011;7486;51.010;10.366;2022-12-15T08:53:40;25.77;;;14.83;;
14789;SDS011;7486;51.010;10.366;2022-12-15T08:56:09;24.40;;;14.90;;
14789;SDS011;7486;51.010;10.366;2022-12-15T08:58:37;25.30;;;15.10;;
14789;SDS011;7486;51.010;10.366;2022-12-15T09:01:27;26.17;;;15.03;;
14789;SDS011;7486;51.010;10.366;2022-12-15T09:03:53;22.17;;;14.17;;
14789;SDS011;7486;51.010;10.366;2022-12-15T09:06:23;22.57;;;14.47;;
14789;SDS011;7486;51.010;10.366;2022-12-15T09:08:55;25.33;;;15.37;;
14789;SDS011;7486;51.010;10.366;2022-12-15T09:11:24;28.63;;;17.00;;
14789;SDS011;7486;51.010;10.366;2022-12-15T09:13:51;26.87;;;16.03;;
14789;SDS011;7486;51.010;10.366;2022-12-15T09:16:19;25.90;;;15.73;;
14789;SDS011;7486;51.010;10.366;2022-12-15T09:18:48;22.17;;;14.40;;
14789;SDS011;7486;51.010;10.366;2022-12-15T09:21:20;25.47;;;15.17;;
14789;SDS011;7486;51.010;10.366;2022-12-15T09:23:49;24.87;;;15.40;;
14789;SDS011;7486;51.010;10.366;2022-12-15T09:26:16;24.50;;;14.97;;
14789;SDS011;7486;51.010;10.366;2022-12-15T09:28:44;22.97;;;15.00;;
14789;SDS011;7486;51.010;10.366;2022-12-15T09:31:17;23.37;;;14.00;;
14789;SDS011;7486;51.010;10.366;2022-12-15T09:33:48;24.67;;;13.83;;
14789;SDS011;7486;51.010;10.366;2022-12-15T09:36:16;23.67;;;14.43;;
14789;SDS011;7486;51.010;10.366;2022-12-15T09:38:43;24.47;;;14.40;;
14789;SDS011;7486;51.010;10.366;2022-12-15T09:52:09;24.13;;;14.60;;
14789;SDS011;7486;51.010;10.366;2022-12-15T09:54:39;22.90;;;14.53;;
14789;SDS011;7486;51.010;10.366;2022-12-15T10:08:36;21.97;;;13.70;;
14789;SDS011;7486;51.010;10.366;2022-12-15T10:11:49;20.93;;;12.87;;
14789;SDS011;7486;51.010;10.366;2022-12-15T10:19:44;20.40;;;13.47;;
14789;SDS011;7486;51.010;10.366;2022-12-15T10:22:18;21.23;;;13.27;;
14789;SDS011;7486;51.010;10.366;2022-12-15T10:24:53;22.10;;;13.07;;
14789;SDS011;7486;51.010;10.366;2022-12-15T10:33:54;21.97;;;13.63;;
14789;SDS011;7486;51.010;10.366;2022-12-15T10:36:26;24.67;;;14.50;;
14789;SDS011;7486;51.010;10.366;2022-12-15T10:38:53;21.40;;;13.63;;
14789;SDS011;7486;51.010;10.366;2022-12-15T10:41:20;19.10;;;12.77;;
14789;SDS011;7486;51.010;10.366;2022-12-15T10:43:49;21.97;;;13.70;;
14789;SDS011;7486;51.010;10.366;2022-12-15T10:46:22;18.97;;;12.10;;
14789;SDS011;7486;51.010;10.366;2022-12-15T10:49:19;19.57;;;12.53;;
14789;SDS011;7486;51.010;10.366;2022-12-15T10:51:52;19.67;;;13.00;;
14789;SDS011;7486;51.010;10.366;2022-12-15T10:54:25;20.43;;;13.80;;
14789;SDS011;7486;51.010;10.366;2022-12-15T10:57:13;21.40;;;13.80;;
14789;SDS011;7486;51.010;10.366;2022-12-15T10:59:46;19.47;;;12.70;;
14789;SDS011;7486;51.010;10.366;2022-12-15T11:02:26;17.93;;;12.77;;
14789;SDS011;7486;51.010;10.366;2022-12-15T11:04:56;18.23;;;12.50;;
14789;SDS011;7486;51.010;10.366;2022-12-15T11:07:50;20.00;;;13.03;;
14789;SDS011;7486;51.010;10.366;2022-12-15T11:10:24;20.87;;;13.40;;
14789;SDS011;7486;51.010;10.366;2022-12-15T11:12:54;20.13;;;13.00;;
14789;SDS011;7486;51.010;10.366;2022-12-15T11:15:31;19.37;;;13.53;;
14789;SDS011;7486;51.010;10.366;2022-12-15T11:18:07;21.77;;;12.70;;
14789;SDS011;7486;51.010;10.366;2022-12-15T11:20:42;18.17;;;12.53;;
14789;SDS011;7486;51.010;10.366;2022-12-15T11:29:14;19.83;;;12.83;;
14789;SDS011;7486;51.010;10.366;2022-12-15T11:31:49;20.70;;;12.67;;
14789;SDS011;7486;51.010;10.366;2022-12-15T11:34:21;19.63;;;12.93;;
14789;SDS011;7486;51.010;10.366;2022-12-15T11:42:33;19.70;;;12.60;;
14789;SDS011;7486;51.010;10.366;2022-12-15T11:50:47;17.47;;;11.97;;
14789;SDS011;7486;51.010;10.366;2022-12-15T11:56:27;20.37;;;12.17;;
14789;SDS011;7486;51.010;10.366;2022-12-15T12:07:24;19.00;;;12.17;;
14789;SDS011;7486;51.010;10.366;2022-12-15T12:10:55;20.43;;;13.70;;
14789;SDS011;7486;51.010;10.366;2022-12-15T12:13:13;22.57;;;13.57;;
14789;SDS011;7486;51.010;10.366;2022-12-15T12:19:09;18.47;;;13.00;;
14789;SDS011;7486;51.010;10.366;2022-12-15T12:21:50;19.87;;;12.37;;
14789;SDS011;7486;51.010;10.366;2022-12-15T12:24:29;17.43;;;11.37;;
14789;SDS011;7486;51.010;10.366;2022-12-15T12:29:52;18.63;;;12.87;;
14789;SDS011;7486;51.010;10.366;2022-12-15T12:32:38;20.73;;;12.90;;
14789;SDS011;7486;51.010;10.366;2022-12-15T12:38:22;19.30;;;12.50;;
14789;SDS011;7486;51.010;10.366;2022-12-15T12:40:55;18.97;;;12.17;;
14789;SDS011;7486;51.010;10.366;2022-12-15T12:45:59;19.13;;;11.97;;
14789;SDS011;7486;51.010;10.366;2022-12-15T12:51:29;22.90;;;13.40;;
14789;SDS011;7486;51.010;10.366;2022-12-15T12:54:02;17.83;;;12.17;;
14789;SDS011;7486;51.010;10.366;2022-12-15T12:56:56;17.77;;;11.60;;
14789;SDS011;7486;51.010;10.366;2022-12-15T12:59:32;17.00;;;11.90;;
14789;SDS011;7486;51.010;10.366;2022-12-15T13:07:27;18.97;;;12.20;;
14789;SDS011;7486;51.010;10.366;2022-12-15T13:12:49;16.40;;;10.90;;
14789;SDS011;7486;51.010;10.366;2022-12-15T13:17:56;18.37;;;12.50;;
14789;SDS011;7486;51.010;10.366;2022-12-15T13:20:30;16.40;;;10.57;;
14789;SDS011;7486;51.010;10.366;2022-12-15T13:28:25;17.47;;;11.30;;
14789;SDS011;7486;51.010;10.366;2022-12-15T13:39:08;17.27;;;12.07;;
14789;SDS011;7486;51.010;10.366;2022-12-15T13:44:40;17.23;;;11.40;;
14789;SDS011;7486;51.010;10.366;2022-12-15T13:47:15;20.07;;;12.40;;
14789;SDS011;7486;51.010;10.366;2022-12-15T13:52:47;15.53;;;11.47;;
14789;SDS011;7486;51.010;10.366;2022-12-15T13:55:37;16.37;;;11.07;;
14789;SDS011;7486;51.010;10.366;2022-12-15T13:58:09;16.20;;;11.43;;
14789;SDS011;7486;51.010;10.366;2022-12-15T14:00:50;17.47;;;12.40;;
14789;SDS011;7486;51.010;10.366;2022-12-15T14:03:21;19.77;;;13.47;;
14789;SDS011;7486;51.010;10.366;2022-12-15T14:05:53;17.53;;;12.10;;
14789;SDS011;7486;51.010;10.366;2022-12-15T14:08:22;15.27;;;10.70;;
14789;SDS011;7486;51.010;10.366;2022-12-15T14:10:53;17.03;;;12.13;;
14789;SDS011;7486;51.010;10.366;2022-12-15T14:15:54;17.17;;;12.37;;
14789;SDS011;7486;51.010;10.366;2022-12-15T14:21:00;19.57;;;12.43;;
14789;SDS011;7486;51.010;10.366;2022-12-15T14:23:40;18.27;;;12.80;;
14789;SDS011;7486;51.010;10.366;2022-12-15T14:26:29;17.60;;;11.47;;
14789;SDS011;7486;51.010;10.366;2022-12-15T14:28:59;16.77;;;11.90;;
14789;SDS011;7486;51.010;10.366;2022-12-15T14:31:27;17.70;;;12.40;;
14789;SDS011;7486;51.010;10.366;2022-12-15T14:36:25;20.23;;;12.90;;
14789;SDS011;7486;51.010;10.366;2022-12-15T14:38:56;18.00;;;12.83;;
14789;SDS011;7486;51.010;10.366;2022-12-15T14:41:26;17.30;;;12.53;;
14789;SDS011;7486;51.010;10.366;2022-12-15T14:44:00;18.23;;;12.83;;
14789;SDS011;7486;51.010;10.366;2022-12-15T14:47:17;18.63;;;12.90;;
14789;SDS011;7486;51.010;10.366;2022-12-15T14:49:48;19.87;;;12.87;;
14789;SDS011;7486;51.010;10.366;2022-12-15T14:57:57;15.70;;;11.53;;
14789;SDS011;7486;51.010;10.366;2022-12-15T15:05:45;16.33;;;11.73;;
14789;SDS011;7486;51.010;10.366;2022-12-15T15:08:40;16.63;;;11.67;;
14789;SDS011;7486;51.010;10.366;2022-12-15T15:13:42;20.20;;;12.17;;
14789;SDS011;7486;51.010;10.366;2022-12-15T15:16:13;18.20;;;11.73;;
14789;SDS011;7486;51.010;10.366;2022-12-15T15:18:43;17.20;;;12.13;;
14789;SDS011;7486;51.010;10.366;2022-12-15T15:21:22;17.97;;;12.43;;
14789;SDS011;7486;51.010;10.366;2022-12-15T15:24:01;19.03;;;12.60;;
14789;SDS011;7486;51.010;10.366;2022-12-15T15:26:37;20.33;;;13.10;;
14789;SDS011;7486;51.010;10.366;2022-12-15T15:32:31;19.43;;;12.70;;
14789;SDS011;7486;51.010;10.366;2022-12-15T15:34:50;17.77;;;12.20;;
14789;SDS011;7486;51.010;10.366;2022-12-15T15:37:21;20.50;;;13.27;;
14789;SDS011;7486;51.010;10.366;2022-12-15T15:39:50;20.67;;;14.00;;
14789;SDS011;7486;51.010;10.366;2022-12-15T15:42:20;20.93;;;13.53;;
14789;SDS011;7486;51.010;10.366;2022-12-15T15:44:48;20.03;;;12.87;;
14789;SDS011;7486;51.010;10.366;2022-12-15T15:47:33;18.40;;;11.93;;
14789;SDS011;7486;51.010;10.366;2022-12-15T15:49:59;19.43;;;13.90;;
14789;SDS011;7486;51.010;10.366;2022-12-15T15:52:27;20.27;;;13.17;;
14789;SDS011;7486;51.010;10.366;2022-12-15T15:54:55;18.20;;;12.23;;
14789;SDS011;7486;51.010;10.366;2022-12-15T15:57:21;19.17;;;12.83;;
14789;SDS011;7486;51.010;10.366;2022-12-15T15:59:48;22.13;;;13.93;;
14789;SDS011;7486;51.010;10.366;2022-12-15T16:02:15;20.87;;;13.87;;
14789;SDS011;7486;51.010;10.366;2022-12-15T16:04:42;22.90;;;14.77;;
14789;SDS011;7486;51.010;10.366;2022-12-15T16:07:15;24.23;;;15.90;;
14789;SDS011;7486;51.010;10.366;2022-12-15T16:09:48;27.97;;;16.90;;
14789;SDS011;7486;51.010;10.366;2022-12-15T16:14:51;25.93;;;15.77;;
14789;SDS011;7486;51.010;10.366;2022-12-15T16:17:17;23.93;;;15.63;;
14789;SDS011;7486;51.010;10.366;2022-12-15T16:19:44;24.30;;;15.87;;
14789;SDS011;7486;51.010;10.366;2022-12-15T16:22:12;23.93;;;15.93;;
14789;SDS011;7486;51.010;10.366;2022-12-15T16:24:42;22.67;;;15.17;;
14789;SDS011;7486;51.010;10.366;2022-12-15T16:27:09;23.13;;;15.23;;
14789;SDS011;7486;51.010;10.366;2022-12-15T16:29:39;23.53;;;15.13;;
14789;SDS011;7486;51.010;10.366;2022-12-15T16:32:08;23.23;;;15.00;;
14789;SDS011;7486;51.010;10.366;2022-12-15T16:34:35;22.27;;;14.23;;
14789;SDS011;7486;51.010;10.366;2022-12-15T16:37:02;22.10;;;13.97;;
14789;SDS011;7486;51.010;10.366;2022-12-15T16:39:30;22.00;;;14.03;;
14789;SDS011;7486;51.010;10.366;2022-12-15T16:41:59;22.43;;;13.77;;
14789;SDS011;7486;51.010;10.366;2022-12-15T16:44:27;24.27;;;14.77;;
14789;SDS011;7486;51.010;10.366;2022-12-15T16:46:55;22.97;;;15.20;;
14789;SDS011;7486;51.010;10.366;2022-12-15T16:49:22;24.80;;;15.70;;
14789;SDS011;7486;51.010;10.366;2022-12-15T16:51:49;22.53;;;15.03;;
14789;SDS011;7486;51.010;10.366;2022-12-15T16:54:22;24.90;;;15.87;;
14789;SDS011;7486;51.010;10.366;2022-12-15T16:56:55;24.40;;;15.90;;
14789;SDS011;7486;51.010;10.366;2022-12-15T16:59:23;22.77;;;14.73;;
14789;SDS011;7486;51.010;10.366;2022-12-15T17:02:00;25.13;;;15.13;;
14789;SDS011;7486;51.010;10.366;2022-12-15T17:04:27;25.07;;;15.37;;
14789;SDS011;7486;51.010;10.366;2022-12-15T17:06:54;22.80;;;15.00;;
14789;SDS011;7486;51.010;10.366;2022-12-15T17:09:21;23.57;;;14.90;;
14789;SDS011;7486;51.010;10.366;2022-12-15T17:11:49;26.17;;;16.90;;
14789;SDS011;7486;51.010;10.366;2022-12-15T17:14:16;25.27;;;17.03;;
14789;SDS011;7486;51.010;10.366;2022-12-15T17:16:43;26.30;;;17.13;;
14789;SDS011;7486;51.010;10.366;2022-12-15T17:19:11;26.33;;;16.80;;
14789;SDS011;7486;51.010;10.366;2022-12-15T17:21:46;26.17;;;17.60;;
14789;SDS011;7486;51.010;10.366;2022-12-15T17:24:16;29.93;;;17.57;;
14789;SDS011;7486;51.010;10.366;2022-12-15T17:26:45;26.50;;;16.17;;
14789;SDS011;7486;51.010;10.366;2022-12-15T17:29:14;26.40;;;16.80;;
14789;SDS011;7486;51.010;10.366;2022-12-15T17:31:45;28.40;;;18.23;;